Time;durP1;ratioP1;P1;durP2;ratioP2;P2;SDS_P1;SDS_P2;PMS_P1;PMS_P2;Temp;Humidity;BMP_temperature;BMP_pressure;BME280_temperature;BME280_humidity;BME280_pressure;Samples;Min_cycle;Max_cycle;Signal;HPM_P1;HPM_P2
2023/05/13 00:01:41;;;;;;;3.58;2.60;;;15.10;99.90;;;;;;5015753;28;20030;-80
2023/05/13 00:04:08;;;;;;;4.15;2.40;;;15.00;99.90;;;;;;5031035;28;20026;-81
2023/05/13 00:06:34;;;;;;;3.38;2.40;;;15.00;99.90;;;;;;5015451;28;20048;-81
2023/05/13 00:09:00;;;;;;;5.55;3.10;;;14.90;99.90;;;;;;5016136;28;20044;-81
2023/05/13 00:11:26;;;;;;;3.90;2.53;;;14.90;99.90;;;;;;5015253;28;20060;-81
2023/05/13 00:13:52;;;;;;;4.38;2.53;;;14.80;99.90;;;;;;5030876;28;20056;-81
2023/05/13 00:16:23;;;;;;;4.15;2.60;;;14.80;99.90;;;;;;5014039;28;20029;-81
2023/05/13 00:18:49;;;;;;;3.90;2.60;;;14.70;99.90;;;;;;5013584;28;20037;-80
2023/05/13 00:21:15;;;;;;;3.75;2.67;;;14.70;99.90;;;;;;5020332;28;20025;-81
2023/05/13 00:23:42;;;;;;;5.32;2.47;;;14.60;99.90;;;;;;5015216;28;20034;-81
2023/05/13 00:26:08;;;;;;;4.38;2.70;;;14.60;99.90;;;;;;5019861;28;20483;-80
2023/05/13 00:28:33;;;;;;;6.38;3.13;;;14.50;99.90;;;;;;5016063;28;20048;-80
2023/05/13 00:30:59;;;;;;;5.03;2.80;;;14.50;99.90;;;;;;5019001;28;20031;-80
2023/05/13 00:33:25;;;;;;;4.35;2.83;;;14.40;99.90;;;;;;5014294;28;20030;-80
2023/05/13 00:35:50;;;;;;;4.50;2.80;;;14.40;99.90;;;;;;5019978;28;20455;-80
2023/05/13 00:38:16;;;;;;;4.32;2.67;;;14.40;99.90;;;;;;5014024;28;20037;-81
2023/05/13 00:40:43;;;;;;;4.47;3.15;;;14.30;99.90;;;;;;5013520;28;20320;-81
2023/05/13 00:43:09;;;;;;;4.57;3.22;;;14.30;99.90;;;;;;5030204;28;20069;-80
2023/05/13 00:45:37;;;;;;;6.70;3.38;;;14.20;99.90;;;;;;5014590;28;20105;-80
2023/05/13 00:48:05;;;;;;;5.75;3.40;;;14.20;99.90;;;;;;5013622;28;20033;-82
2023/05/13 00:50:32;;;;;;;5.03;3.22;;;14.20;99.90;;;;;;5013142;28;20033;-81
2023/05/13 00:52:59;;;;;;;5.28;3.53;;;14.20;99.90;;;;;;5012993;28;20041;-81
2023/05/13 00:55:25;;;;;;;5.13;3.50;;;14.20;99.90;;;;;;5013888;28;20023;-81
2023/05/13 00:57:51;;;;;;;4.68;3.17;;;14.20;99.90;;;;;;5013588;28;20029;-81
2023/05/13 01:00:16;;;;;;;6.38;3.70;;;14.10;99.90;;;;;;5014440;28;20041;-81
2023/05/13 01:03:12;;;;;;;4.22;3.22;;;14.10;99.90;;;;;;5014285;28;20502;-81
2023/05/13 01:05:50;;;;;;;3.85;2.72;;;14.20;99.90;;;;;;5013757;28;20373;-82
2023/05/13 01:08:27;;;;;;;5.03;3.63;;;14.20;99.90;;;;;;5011468;28;20144;-82
2023/05/13 01:11:05;;;;;;;4.80;2.50;;;14.10;99.90;;;;;;5012756;28;20399;-81
2023/05/13 01:13:35;;;;;;;4.18;2.80;;;14.10;99.90;;;;;;5014340;28;20037;-81
2023/05/13 01:16:17;;;;;;;4.63;2.58;;;14.10;99.90;;;;;;5013225;28;20131;-82
2023/05/13 01:18:59;;;;;;;4.18;3.15;;;14.00;99.90;;;;;;5012538;28;20033;-81
2023/05/13 01:21:28;;;;;;;5.25;3.10;;;14.00;99.90;;;;;;5013265;28;20025;-82
2023/05/13 01:23:54;;;;;;;3.50;2.80;;;14.00;99.90;;;;;;5013415;28;20030;-81
2023/05/13 01:26:22;;;;;;;5.07;2.60;;;14.00;99.90;;;;;;5017237;28;20067;-82
2023/05/13 01:28:48;;;;;;;3.53;2.60;;;13.90;99.90;;;;;;5012499;28;20029;-79
2023/05/13 01:31:14;;;;;;;4.45;3.03;;;13.90;99.90;;;;;;5014702;28;20479;-80
2023/05/13 01:33:40;;;;;;;5.93;3.10;;;13.80;99.90;;;;;;5011720;28;20025;-81
2023/05/13 01:36:07;;;;;;;4.03;2.92;;;13.80;99.90;;;;;;5014056;28;21014;-81
2023/05/13 01:38:35;;;;;;;4.82;2.83;;;13.80;99.90;;;;;;5013198;28;20029;-81
2023/05/13 01:41:01;;;;;;;4.78;2.78;;;13.70;99.90;;;;;;5014224;28;22347;-80
2023/05/13 01:43:26;;;;;;;5.05;2.92;;;13.70;99.90;;;;;;5015021;28;20113;-80
2023/05/13 01:45:52;;;;;;;5.07;3.20;;;13.60;99.90;;;;;;5016107;28;20033;-81
2023/05/13 01:48:18;;;;;;;4.78;3.13;;;13.60;99.90;;;;;;5011058;28;20029;-81
2023/05/13 01:50:44;;;;;;;4.53;2.95;;;13.60;99.90;;;;;;5013979;28;20695;-80
2023/05/13 01:53:09;;;;;;;3.67;2.90;;;13.50;99.90;;;;;;5012540;28;20022;-81
2023/05/13 01:55:35;;;;;;;5.05;3.40;;;13.50;99.90;;;;;;5013630;28;20040;-80
2023/05/13 01:58:01;;;;;;;4.72;3.10;;;13.50;99.90;;;;;;5014651;28;20045;-81
2023/05/13 02:00:26;;;;;;;4.60;3.22;;;13.40;99.90;;;;;;5014721;28;20045;-80
2023/05/13 02:02:52;;;;;;;3.70;3.13;;;13.30;99.90;;;;;;5015028;28;20027;-81
2023/05/13 02:05:17;;;;;;;4.30;2.92;;;13.30;99.90;;;;;;5017368;28;20108;-81
2023/05/13 02:07:43;;;;;;;4.30;3.15;;;13.30;99.90;;;;;;5013762;28;20064;-81
2023/05/13 02:10:09;;;;;;;3.70;3.05;;;13.20;99.90;;;;;;5018531;28;20057;-81
2023/05/13 02:12:35;;;;;;;5.38;3.35;;;13.20;99.90;;;;;;5018225;28;20025;-80
2023/05/13 02:15:01;;;;;;;5.30;3.17;;;13.20;99.90;;;;;;5028712;28;20737;-82
2023/05/13 02:17:26;;;;;;;5.05;3.65;;;13.10;99.90;;;;;;5016510;28;20026;-81
2023/05/13 02:19:52;;;;;;;4.30;3.40;;;13.10;99.90;;;;;;5017174;28;20724;-81
2023/05/13 02:22:18;;;;;;;3.88;3.25;;;13.10;99.90;;;;;;5015493;28;20929;-80
2023/05/13 02:24:43;;;;;;;3.78;3.13;;;13.10;99.90;;;;;;5017285;28;20464;-82
2023/05/13 02:27:11;;;;;;;4.97;3.33;;;13.00;99.90;;;;;;5032235;28;20475;-81
2023/05/13 02:29:37;;;;;;;5.00;3.38;;;13.00;99.90;;;;;;5018527;28;20022;-80
2023/05/13 02:32:03;;;;;;;4.55;3.00;;;13.00;99.90;;;;;;5009163;28;20025;-82
2023/05/13 02:34:29;;;;;;;4.25;3.22;;;12.90;99.90;;;;;;5015353;28;20030;-82
2023/05/13 02:36:54;;;;;;;5.90;3.58;;;12.90;99.90;;;;;;5017060;28;20562;-82
2023/05/13 02:39:20;;;;;;;3.95;3.10;;;12.90;99.90;;;;;;5015476;28;20506;-81
2023/05/13 02:41:45;;;;;;;4.50;3.60;;;12.80;99.90;;;;;;5017815;28;20040;-81
2023/05/13 02:44:11;;;;;;;5.10;3.22;;;12.80;99.90;;;;;;5017648;28;20037;-81
2023/05/13 02:46:37;;;;;;;4.93;3.67;;;12.80;99.90;;;;;;5015631;28;20040;-83
2023/05/13 02:49:02;;;;;;;4.55;3.30;;;12.70;99.90;;;;;;5016401;28;20037;-82
2023/05/13 02:51:28;;;;;;;4.95;3.60;;;12.70;99.90;;;;;;5016059;28;20025;-82
2023/05/13 02:53:53;;;;;;;5.30;3.65;;;12.70;99.90;;;;;;5014882;28;20124;-82
2023/05/13 02:56:19;;;;;;;4.22;3.20;;;12.60;99.90;;;;;;5013848;28;20127;-81
2023/05/13 02:58:45;;;;;;;4.03;3.42;;;12.60;99.90;;;;;;5017959;28;20511;-81
2023/05/13 03:01:10;;;;;;;3.72;3.00;;;12.60;99.90;;;;;;5028240;28;20108;-81
2023/05/13 03:03:36;;;;;;;3.80;3.20;;;12.60;99.90;;;;;;5014877;28;20042;-82
2023/05/13 03:06:02;;;;;;;4.50;3.30;;;12.50;99.90;;;;;;5014382;28;20028;-82
2023/05/13 03:08:28;;;;;;;4.70;3.35;;;12.50;99.90;;;;;;5016105;28;20037;-81
2023/05/13 03:10:53;;;;;;;4.05;2.85;;;12.50;99.90;;;;;;5016547;28;20068;-82
2023/05/13 03:13:19;;;;;;;4.88;3.33;;;12.40;99.90;;;;;;5031296;28;20064;-82
2023/05/13 03:15:44;;;;;;;5.25;3.47;;;12.40;99.90;;;;;;5018274;28;20195;-82
2023/05/13 03:18:10;;;;;;;3.92;3.17;;;12.30;99.90;;;;;;5016945;28;20042;-81
2023/05/13 03:20:36;;;;;;;3.85;3.08;;;12.30;99.90;;;;;;5013665;28;20163;-82
2023/05/13 03:23:01;;;;;;;4.50;3.45;;;12.30;99.90;;;;;;5013978;28;20060;-82
2023/05/13 03:25:27;;;;;;;4.18;3.53;;;12.20;99.90;;;;;;5015557;28;20033;-82
2023/05/13 03:27:53;;;;;;;6.20;3.90;;;12.20;99.90;;;;;;5014763;28;20021;-81
2023/05/13 03:30:19;;;;;;;6.10;3.50;;;12.20;99.90;;;;;;5020681;28;20116;-81
2023/05/13 03:32:46;;;;;;;5.22;3.28;;;12.10;99.90;;;;;;5014502;28;20570;-82
2023/05/13 03:35:12;;;;;;;5.03;3.33;;;12.10;99.90;;;;;;5015387;28;20099;-81
2023/05/13 03:37:37;;;;;;;5.32;4.10;;;12.10;99.90;;;;;;5016099;28;20384;-81
2023/05/13 03:40:04;;;;;;;5.75;3.88;;;12.00;99.90;;;;;;5015454;28;20037;-82
2023/05/13 03:42:29;;;;;;;5.47;3.92;;;12.00;99.90;;;;;;5015173;28;20029;-82
2023/05/13 03:44:56;;;;;;;5.32;3.85;;;12.00;99.90;;;;;;5017105;28;20030;-82
2023/05/13 03:47:22;;;;;;;5.97;4.10;;;12.00;99.90;;;;;;5015660;28;20084;-82
2023/05/13 03:49:47;;;;;;;5.63;3.78;;;11.90;99.90;;;;;;5013697;28;20030;-82
2023/05/13 03:52:13;;;;;;;5.22;4.07;;;11.90;99.90;;;;;;5014997;28;21008;-82
2023/05/13 03:54:39;;;;;;;5.90;3.60;;;11.90;99.90;;;;;;5014580;28;20092;-81
2023/05/13 03:57:06;;;;;;;4.13;3.17;;;11.90;99.90;;;;;;5030581;28;20025;-80
2023/05/13 03:59:31;;;;;;;5.43;3.97;;;11.80;99.90;;;;;;5016082;28;20041;-80
2023/05/13 04:01:57;;;;;;;4.63;3.92;;;11.80;99.90;;;;;;5017131;28;20047;-80
2023/05/13 04:04:22;;;;;;;4.55;3.67;;;11.80;99.90;;;;;;5019352;28;20036;-82
2023/05/13 04:06:48;;;;;;;6.20;4.32;;;11.80;99.90;;;;;;5030215;28;20028;-82
2023/05/13 04:09:13;;;;;;;5.60;4.30;;;11.80;99.90;;;;;;5015228;28;20040;-80
2023/05/13 04:11:39;;;;;;;5.65;3.63;;;11.80;99.90;;;;;;5014605;28;20045;-80
2023/05/13 04:14:05;;;;;;;4.95;3.83;;;11.70;99.90;;;;;;5015865;28;20034;-81
2023/05/13 04:16:30;;;;;;;5.43;4.22;;;11.70;99.90;;;;;;5025410;28;20383;-81
2023/05/13 04:18:56;;;;;;;5.80;4.35;;;11.70;99.90;;;;;;5014318;28;20049;-80
2023/05/13 04:21:21;;;;;;;5.13;4.03;;;11.70;99.90;;;;;;5014165;28;20034;-81
2023/05/13 04:23:47;;;;;;;4.95;4.00;;;11.70;99.90;;;;;;5015195;28;20037;-80
2023/05/13 04:26:12;;;;;;;5.78;3.83;;;11.70;99.90;;;;;;5025650;28;20021;-81
2023/05/13 04:28:38;;;;;;;5.90;4.15;;;11.70;99.90;;;;;;5014826;28;20030;-81
2023/05/13 04:31:03;;;;;;;4.72;3.67;;;11.70;99.90;;;;;;5015347;28;20663;-81
2023/05/13 04:33:29;;;;;;;5.55;4.78;;;11.70;99.90;;;;;;5015474;28;20764;-79
2023/05/13 04:35:54;;;;;;;6.22;4.40;;;11.70;99.90;;;;;;5013832;28;20025;-80
2023/05/13 04:38:20;;;;;;;7.65;4.60;;;11.70;99.90;;;;;;5014740;28;20568;-80
2023/05/13 04:40:46;;;;;;;5.80;4.20;;;11.80;99.90;;;;;;5015078;28;20036;-81
2023/05/13 04:43:12;;;;;;;7.03;5.30;;;11.80;99.90;;;;;;5014052;28;20076;-81
2023/05/13 04:45:38;;;;;;;6.72;5.43;;;11.80;99.90;;;;;;5015384;28;20017;-80
2023/05/13 04:48:04;;;;;;;7.68;4.95;;;11.90;99.90;;;;;;5014773;28;20034;-80
2023/05/13 04:50:30;;;;;;;6.10;4.45;;;11.90;99.90;;;;;;5012109;28;20042;-80
2023/05/13 04:52:56;;;;;;;5.68;4.85;;;11.90;99.90;;;;;;5019181;28;20029;-82
2023/05/13 04:55:22;;;;;;;6.05;4.88;;;12.00;99.90;;;;;;5012506;28;20030;-81
2023/05/13 04:57:47;;;;;;;7.63;5.50;;;12.00;99.90;;;;;;5015387;28;20810;-81
2023/05/13 05:00:13;;;;;;;6.90;5.07;;;12.00;99.90;;;;;;5015453;28;20109;-81
2023/05/13 05:02:39;;;;;;;6.65;4.90;;;11.90;99.90;;;;;;5015597;28;20082;-81
2023/05/13 05:05:05;;;;;;;6.18;5.20;;;12.00;99.90;;;;;;5012675;28;20906;-82
2023/05/13 05:07:30;;;;;;;6.97;4.70;;;11.90;99.90;;;;;;5012998;28;22441;-81
2023/05/13 05:09:56;;;;;;;6.53;5.47;;;11.90;99.90;;;;;;5013239;28;20046;-81
2023/05/13 05:12:22;;;;;;;7.63;5.63;;;12.00;99.90;;;;;;5012638;28;20037;-82
2023/05/13 05:14:47;;;;;;;6.38;4.90;;;11.90;99.90;;;;;;5012850;28;20065;-83
2023/05/13 05:17:13;;;;;;;7.95;5.35;;;12.00;99.90;;;;;;5016173;28;20057;-81
2023/05/13 05:19:39;;;;;;;7.65;5.15;;;12.00;99.90;;;;;;5013636;28;20071;-82
2023/05/13 05:22:04;;;;;;;6.60;5.13;;;12.10;99.90;;;;;;5014047;28;20411;-82
2023/05/13 05:24:30;;;;;;;7.72;6.30;;;12.10;99.90;;;;;;5011831;28;20055;-82
2023/05/13 05:26:55;;;;;;;8.55;6.28;;;12.20;99.90;;;;;;5013378;28;20152;-81
2023/05/13 05:29:21;;;;;;;8.32;5.63;;;12.20;99.90;;;;;;5014473;28;20506;-82
2023/05/13 05:31:47;;;;;;;6.28;5.38;;;12.40;99.90;;;;;;5018342;28;20060;-82
2023/05/13 05:34:13;;;;;;;7.47;6.00;;;12.40;99.90;;;;;;4996537;28;20026;-83
2023/05/13 05:36:38;;;;;;;6.38;5.32;;;12.50;99.90;;;;;;5012182;28;20034;-82
2023/05/13 05:39:04;;;;;;;7.57;4.95;;;12.50;99.90;;;;;;5012139;28;20056;-83
2023/05/13 05:41:30;;;;;;;6.75;5.50;;;12.60;99.90;;;;;;5014233;28;20434;-81
2023/05/13 05:43:55;;;;;;;7.53;5.18;;;12.60;99.90;;;;;;5019029;28;20099;-82
2023/05/13 05:46:24;;;;;;;7.20;5.10;;;12.60;99.90;;;;;;5021556;28;20155;-82
2023/05/13 05:48:49;;;;;;;7.72;5.10;;;12.60;99.90;;;;;;5021604;28;20196;-83
2023/05/13 05:51:15;;;;;;;6.20;4.90;;;12.60;99.90;;;;;;5019637;28;20030;-83
2023/05/13 05:53:41;;;;;;;8.15;5.93;;;12.60;99.90;;;;;;5018072;28;20695;-82
2023/05/13 05:56:07;;;;;;;5.75;5.00;;;12.70;99.90;;;;;;5017524;28;20154;-82
2023/05/13 05:58:33;;;;;;;8.18;5.78;;;12.80;99.90;;;;;;5020417;28;20414;-82
2023/05/13 06:00:59;;;;;;;6.68;5.63;;;12.90;99.90;;;;;;5035579;28;20033;-81
2023/05/13 06:03:25;;;;;;;6.47;5.70;;;13.00;99.90;;;;;;5021062;28;20061;-82
2023/05/13 06:05:51;;;;;;;6.18;5.22;;;13.10;99.90;;;;;;5020259;28;20517;-83
2023/05/13 06:08:16;;;;;;;6.95;5.78;;;13.20;99.90;;;;;;5035264;28;20525;-82
2023/05/13 06:10:43;;;;;;;7.97;5.20;;;13.30;99.90;;;;;;5018994;28;20048;-82
2023/05/13 06:13:09;;;;;;;7.03;4.55;;;13.40;99.90;;;;;;5020138;28;20030;-82
2023/05/13 06:15:38;;;;;;;6.90;5.82;;;13.50;99.90;;;;;;5020553;28;20036;-81
2023/05/13 06:18:04;;;;;;;7.72;5.93;;;13.50;99.90;;;;;;5021351;28;20034;-82
2023/05/13 06:20:31;;;;;;;7.85;5.70;;;13.50;99.90;;;;;;5020358;28;20132;-83
2023/05/13 06:22:57;;;;;;;6.57;5.25;;;13.50;99.90;;;;;;5018780;28;20171;-81
2023/05/13 06:25:22;;;;;;;7.65;4.82;;;13.50;99.90;;;;;;5017906;28;20030;-81
2023/05/13 06:27:48;;;;;;;5.75;4.85;;;13.50;99.90;;;;;;5032600;28;20594;-81
2023/05/13 06:30:14;;;;;;;7.20;5.35;;;13.50;99.90;;;;;;5022127;28;20038;-82
2023/05/13 06:32:40;;;;;;;6.03;4.50;;;13.60;99.90;;;;;;5019324;28;20479;-82
2023/05/13 06:35:06;;;;;;;5.93;4.63;;;13.60;99.90;;;;;;5018210;28;21036;-82
2023/05/13 06:37:31;;;;;;;6.55;5.05;;;13.60;99.90;;;;;;5016886;28;20083;-83
2023/05/13 06:39:58;;;;;;;9.75;6.28;;;13.70;99.90;;;;;;5017135;28;20395;-82
2023/05/13 06:42:23;;;;;;;6.03;5.32;;;13.80;99.90;;;;;;5031908;28;20029;-82
2023/05/13 06:44:49;;;;;;;6.60;5.00;;;13.80;99.90;;;;;;5018388;28;20075;-82
2023/05/13 06:47:15;;;;;;;5.50;4.53;;;13.90;99.90;;;;;;5016959;28;20394;-83
2023/05/13 06:49:41;;;;;;;5.90;4.90;;;14.00;99.90;;;;;;5018568;28;20018;-82
2023/05/13 06:52:08;;;;;;;5.72;4.65;;;14.10;99.90;;;;;;5017180;28;20033;-82
2023/05/13 06:54:33;;;;;;;6.43;4.50;;;14.20;99.90;;;;;;5015171;28;20025;-81
2023/05/13 06:56:59;;;;;;;5.25;4.38;;;14.20;99.90;;;;;;5015411;28;20076;-81
2023/05/13 06:59:25;;;;;;;5.97;4.55;;;14.30;99.90;;;;;;5014106;28;20124;-81
2023/05/13 07:01:50;;;;;;;8.80;4.65;;;14.40;99.90;;;;;;5015649;28;20052;-80
2023/05/13 07:04:16;;;;;;;7.07;5.18;;;14.40;99.90;;;;;;5014973;28;20033;-81
2023/05/13 07:06:41;;;;;;;5.78;4.60;;;14.50;99.90;;;;;;5013549;28;20029;-80
2023/05/13 07:09:10;;;;;;;7.07;4.88;;;14.50;99.90;;;;;;5013355;28;20029;-79
2023/05/13 07:11:36;;;;;;;6.97;5.05;;;14.60;99.90;;;;;;5013092;28;20095;-80
2023/05/13 07:14:01;;;;;;;8.18;4.70;;;14.70;99.90;;;;;;5014275;28;20037;-80
2023/05/13 07:16:27;;;;;;;5.97;4.80;;;14.80;99.90;;;;;;5016850;28;20036;-82
2023/05/13 07:18:53;;;;;;;6.47;4.30;;;14.80;99.90;;;;;;5013531;28;20763;-82
2023/05/13 07:21:19;;;;;;;5.78;4.40;;;14.90;99.90;;;;;;5013920;28;20048;-82
2023/05/13 07:23:44;;;;;;;4.85;3.80;;;14.90;99.90;;;;;;5014191;28;20037;-82
2023/05/13 07:26:10;;;;;;;5.18;4.00;;;15.00;99.90;;;;;;5013574;28;20018;-82
2023/05/13 07:28:36;;;;;;;5.15;4.13;;;15.10;99.90;;;;;;5014469;28;20029;-82
2023/05/13 07:31:03;;;;;;;5.47;4.18;;;15.10;99.90;;;;;;5014644;28;20044;-81
2023/05/13 07:33:30;;;;;;;5.85;3.92;;;15.20;99.90;;;;;;5014533;28;20090;-80
2023/05/13 07:35:55;;;;;;;5.35;3.85;;;15.40;99.90;;;;;;5013446;28;20014;-80
2023/05/13 07:38:21;;;;;;;5.78;3.33;;;15.50;99.90;;;;;;5011961;28;20041;-80
2023/05/13 07:40:47;;;;;;;5.32;3.35;;;15.70;99.90;;;;;;5013215;28;20046;-80
2023/05/13 07:43:13;;;;;;;5.72;3.78;;;15.80;99.90;;;;;;5013128;28;20042;-80
2023/05/13 07:45:38;;;;;;;6.13;3.90;;;15.90;99.90;;;;;;5011986;28;20022;-83
2023/05/13 07:48:04;;;;;;;9.25;4.53;;;15.90;99.90;;;;;;5029512;28;20124;-81
2023/05/13 07:50:30;;;;;;;4.35;3.70;;;16.00;99.90;;;;;;5013388;28;20679;-82
2023/05/13 07:52:56;;;;;;;6.05;4.03;;;16.00;99.90;;;;;;5013131;28;20028;-81
2023/05/13 07:55:22;;;;;;;4.22;3.17;;;16.00;99.90;;;;;;5013374;28;20029;-81
2023/05/13 07:57:47;;;;;;;5.45;3.88;;;16.00;99.90;;;;;;5012689;28;20608;-81
2023/05/13 08:00:14;;;;;;;4.43;3.30;;;16.10;99.90;;;;;;5023843;28;20040;-80
2023/05/13 08:02:42;;;;;;;4.70;3.80;;;16.10;99.90;;;;;;5013392;28;20032;-81
2023/05/13 08:05:09;;;;;;;5.80;3.58;;;16.20;99.90;;;;;;5012573;28;20037;-81
2023/05/13 08:07:35;;;;;;;5.05;3.08;;;16.20;99.90;;;;;;5012583;28;20075;-80
2023/05/13 08:10:00;;;;;;;5.85;3.53;;;16.30;99.90;;;;;;5013635;28;20045;-81
2023/05/13 08:12:26;;;;;;;7.38;3.40;;;16.40;99.90;;;;;;5013034;28;20882;-81
2023/05/13 08:14:51;;;;;;;4.47;3.35;;;16.60;99.90;;;;;;5022376;28;20430;-84
2023/05/13 08:17:18;;;;;;;4.50;3.10;;;16.70;99.90;;;;;;5011580;28;20040;-80
2023/05/13 08:19:44;;;;;;;4.93;3.25;;;16.80;99.90;;;;;;5011495;28;20048;-80
2023/05/13 08:22:09;;;;;;;4.07;3.17;;;16.90;99.90;;;;;;5012720;28;20018;-79
2023/05/13 08:24:35;;;;;;;3.10;2.47;;;17.10;99.90;;;;;;5013917;28;20072;-79
2023/05/13 08:27:01;;;;;;;4.88;3.33;;;17.20;99.90;;;;;;5012764;28;20790;-79
2023/05/13 08:29:27;;;;;;;3.78;2.80;;;17.30;99.90;;;;;;5012195;28;20029;-79
2023/05/13 08:31:52;;;;;;;5.63;2.70;;;17.40;99.90;;;;;;5012305;28;20083;-79
2023/05/13 08:34:18;;;;;;;5.78;3.28;;;17.50;99.90;;;;;;5011728;28;20120;-80
2023/05/13 08:36:44;;;;;;;3.88;2.55;;;17.60;99.90;;;;;;5012485;28;20026;-79
2023/05/13 08:39:09;;;;;;;4.35;2.95;;;17.70;99.90;;;;;;5011093;28;20044;-79
2023/05/13 08:41:36;;;;;;;4.28;2.90;;;17.70;99.90;;;;;;5020841;28;20498;-79
2023/05/13 08:44:05;;;;;;;3.60;2.50;;;17.90;99.90;;;;;;5013934;28;20033;-79
2023/05/13 08:46:33;;;;;;;5.03;3.00;;;18.00;99.90;;;;;;5027216;28;20039;-79
2023/05/13 08:49:00;;;;;;;4.90;3.30;;;18.10;99.90;;;;;;5012997;28;20774;-79
2023/05/13 08:51:26;;;;;;;3.83;2.65;;;18.20;99.90;;;;;;5016256;28;20128;-80
2023/05/13 08:53:53;;;;;;;4.40;2.85;;;18.30;99.90;;;;;;5028030;28;20071;-80
2023/05/13 08:56:21;;;;;;;3.85;2.72;;;18.40;99.90;;;;;;5027006;28;20030;-82
2023/05/13 08:58:46;;;;;;;5.20;2.75;;;18.50;99.90;;;;;;5014505;28;20030;-79
2023/05/13 09:01:13;;;;;;;3.80;2.40;;;18.60;99.90;;;;;;5012396;28;20029;-79
2023/05/13 09:03:53;;;;;;;3.20;2.30;;;18.70;99.90;;;;;;5012582;28;20026;-79
2023/05/13 09:06:19;;;;;;;3.40;2.28;;;18.90;99.90;;;;;;5010687;28;20057;-79
2023/05/13 09:08:45;;;;;;;3.70;2.40;;;19.00;99.90;;;;;;5011884;28;20120;-79
2023/05/13 09:11:11;;;;;;;5.05;1.95;;;19.20;99.90;;;;;;5012324;28;20132;-79
2023/05/13 09:13:36;;;;;;;3.30;2.00;;;19.30;99.90;;;;;;5013142;28;20132;-79
2023/05/13 09:16:02;;;;;;;3.28;1.83;;;19.40;99.90;;;;;;5011528;28;20030;-79
2023/05/13 09:18:31;;;;;;;2.60;1.90;;;19.50;99.90;;;;;;5010974;28;20045;-78
2023/05/13 09:20:56;;;;;;;3.55;2.35;;;19.70;99.90;;;;;;5011408;28;20033;-79
2023/05/13 09:23:22;;;;;;;2.53;1.90;;;19.70;99.90;;;;;;5011046;28;20598;-79
2023/05/13 09:25:48;;;;;;;3.70;2.03;;;19.90;99.90;;;;;;5011182;28;20040;-79
2023/05/13 09:28:14;;;;;;;2.95;2.10;;;20.00;99.90;;;;;;5022936;28;20597;-79
2023/05/13 09:30:44;;;;;;;5.30;2.17;;;20.20;99.90;;;;;;5010294;28;20084;-79
2023/05/13 09:33:18;;;;;;;2.22;1.77;;;20.90;99.90;;;;;;5012063;28;20021;-79
2023/05/13 09:35:49;;;;;;;4.25;2.35;;;22.10;99.90;;;;;;5012464;28;20030;-80
2023/05/13 09:38:19;;;;;;;3.55;2.10;;;23.40;99.90;;;;;;5011606;28;20033;-80
2023/05/13 09:40:55;;;;;;;3.08;1.92;;;24.40;99.90;;;;;;5012728;28;20540;-80
2023/05/13 09:43:23;;;;;;;4.18;2.05;;;25.40;99.90;;;;;;5011498;28;20034;-80
2023/05/13 09:45:56;;;;;;;2.63;1.92;;;25.80;99.90;;;;;;5009238;28;20480;-81
2023/05/13 09:48:26;;;;;;;4.00;2.15;;;26.40;99.90;;;;;;5010658;28;20525;-80
2023/05/13 09:50:52;;;;;;;3.25;2.05;;;26.50;99.90;;;;;;5011199;28;20033;-79
2023/05/13 09:53:21;;;;;;;4.13;2.10;;;26.70;99.90;;;;;;5011265;28;20498;-80
2023/05/13 09:55:55;;;;;;;4.22;1.95;;;27.00;99.90;;;;;;5013421;28;20033;-81
2023/05/13 09:58:23;;;;;;;3.13;1.85;;;27.20;99.90;;;;;;5008788;28;20052;-79
2023/05/13 10:00:51;;;;;;;4.85;2.08;;;27.20;99.90;;;;;;5010245;28;20480;-78
2023/05/13 10:03:17;;;;;;;3.40;1.95;;;27.40;99.90;;;;;;5012569;28;20095;-79
2023/05/13 10:05:43;;;;;;;4.15;1.92;;;27.60;99.90;;;;;;5012553;28;20868;-80
2023/05/13 10:08:11;;;;;;;2.47;1.60;;;27.70;99.90;;;;;;5011866;28;20078;-80
2023/05/13 10:10:39;;;;;;;2.42;1.77;;;28.10;99.90;;;;;;5012107;28;20046;-81
2023/05/13 10:13:10;;;;;;;3.22;1.90;;;28.50;99.90;;;;;;5011715;28;20081;-80
2023/05/13 10:15:39;;;;;;;4.95;1.80;;;28.80;99.90;;;;;;5010730;28;20542;-81
2023/05/13 10:18:05;;;;;;;3.00;1.75;;;28.80;99.40;;;;;;5010815;28;20557;-81
2023/05/13 10:20:31;;;;;;;3.60;2.00;;;28.70;98.60;;;;;;5010630;28;20056;-81
2023/05/13 10:22:57;;;;;;;3.90;2.00;;;28.60;97.40;;;;;;5026445;28;20029;-81
2023/05/13 10:25:23;;;;;;;3.78;1.80;;;28.40;96.20;;;;;;5012559;28;20060;-81
2023/05/13 10:27:50;;;;;;;3.75;1.90;;;28.20;96.00;;;;;;5014498;28;20539;-81
2023/05/13 10:30:17;;;;;;;2.70;1.60;;;28.30;95.70;;;;;;5014943;28;20052;-81
2023/05/13 10:32:43;;;;;;;4.15;2.13;;;28.50;95.60;;;;;;5016114;28;20033;-81
2023/05/13 10:35:15;;;;;;;4.40;2.15;;;28.60;94.50;;;;;;5016794;28;20026;-81
2023/05/13 10:38:06;;;;;;;3.40;1.65;;;28.60;94.40;;;;;;5018266;28;20156;-80
2023/05/13 10:41:07;;;;;;;3.13;2.03;;;28.80;94.30;;;;;;5018334;28;20063;-80
2023/05/13 10:43:34;;;;;;;3.25;2.13;;;28.90;94.00;;;;;;5016295;28;20041;-81
2023/05/13 10:46:09;;;;;;;3.97;2.10;;;28.80;93.20;;;;;;5016252;28;20108;-81
2023/05/13 10:48:42;;;;;;;3.97;2.35;;;28.90;93.00;;;;;;5016019;28;20061;-81
2023/05/13 10:51:12;;;;;;;4.45;2.03;;;29.10;93.10;;;;;;5017478;28;20078;-80
2023/05/13 10:53:53;;;;;;;2.38;1.77;;;29.30;92.50;;;;;;5015174;28;20137;-80
2023/05/13 10:56:21;;;;;;;3.33;2.08;;;29.30;92.10;;;;;;5017218;28;20078;-80
2023/05/13 10:59:06;;;;;;;2.97;1.70;;;29.20;91.20;;;;;;5016173;28;20037;-80
2023/05/13 11:01:41;;;;;;;2.45;1.60;;;29.30;91.90;;;;;;5015020;28;20030;-80
2023/05/13 11:04:14;;;;;;;2.08;1.60;;;29.80;92.00;;;;;;5016011;28;20399;-82
2023/05/13 11:06:43;;;;;;;3.33;1.48;;;30.30;92.00;;;;;;5014322;28;20032;-81
2023/05/13 11:09:12;;;;;;;2.92;1.67;;;30.50;91.70;;;;;;5017516;28;20408;-81
2023/05/13 11:11:38;;;;;;;3.58;1.70;;;30.70;91.40;;;;;;5031158;28;20046;-81
2023/05/13 11:14:16;;;;;;;2.38;1.60;;;30.80;91.50;;;;;;5017354;28;20034;-81
2023/05/13 11:16:55;;;;;;;3.03;1.60;;;30.80;90.00;;;;;;5013972;28;20040;-81
2023/05/13 11:19:26;;;;;;;2.60;1.77;;;30.60;89.40;;;;;;5015622;28;20033;-79
2023/05/13 11:21:53;;;;;;;3.55;1.70;;;30.70;89.10;;;;;;5017802;28;20018;-79
2023/05/13 11:24:20;;;;;;;2.50;1.73;;;30.70;88.70;;;;;;5016469;28;20026;-79
2023/05/13 11:26:57;;;;;;;3.17;1.75;;;30.70;87.50;;;;;;5017136;28;20034;-79
2023/05/13 11:29:48;;;;;;;3.53;2.00;;;30.70;86.00;;;;;;5014610;28;20029;-79
2023/05/13 11:32:14;;;;;;;3.83;2.25;;;30.70;86.30;;;;;;5013011;28;20132;-79
2023/05/13 11:34:50;;;;;;;5.05;1.92;;;29.90;86.10;;;;;;5016246;28;20135;-79
2023/05/13 11:37:17;;;;;;;2.85;1.85;;;29.70;85.40;;;;;;5017450;28;20629;-79
2023/05/13 11:39:43;;;;;;;3.67;2.00;;;29.90;85.60;;;;;;5015212;28;20035;-79
2023/05/13 11:42:10;;;;;;;4.20;2.00;;;30.00;85.00;;;;;;5013475;28;20040;-80
2023/05/13 11:44:36;;;;;;;2.90;2.03;;;29.60;85.20;;;;;;5014600;28;20033;-80
2023/05/13 11:47:07;;;;;;;4.90;2.00;;;29.30;85.10;;;;;;5013478;28;20026;-80
2023/05/13 11:49:46;;;;;;;2.63;1.70;;;28.60;85.50;;;;;;5011735;28;20034;-80
2023/05/13 11:52:17;;;;;;;3.15;2.00;;;28.40;87.20;;;;;;5017723;28;20057;-81
2023/05/13 11:54:50;;;;;;;3.65;1.83;;;28.10;86.10;;;;;;5016938;28;20029;-80
2023/05/13 11:57:25;;;;;;;;;;;28.40;86.40;;;;;;5016282;28;20083;-80
2023/05/13 12:00:06;;;;;;;3.97;2.03;;;28.40;86.60;;;;;;5015847;28;19972;-80
2023/05/13 12:02:43;;;;;;;6.18;2.15;;;28.60;86.30;;;;;;5015828;28;20038;-82
2023/05/13 12:05:10;;;;;;;2.95;2.13;;;29.30;85.80;;;;;;5015815;28;20025;-81
2023/05/13 12:07:37;;;;;;;4.07;1.73;;;29.80;84.50;;;;;;5016995;28;20037;-82
2023/05/13 12:10:04;;;;;;;4.68;2.00;;;30.30;84.00;;;;;;5014752;28;20714;-77
2023/05/13 12:12:33;;;;;;;3.38;1.80;;;30.20;83.50;;;;;;5012722;28;20026;-76
2023/05/13 12:15:00;;;;;;;2.53;1.83;;;30.70;83.20;;;;;;5014074;28;20034;-81
2023/05/13 12:17:26;;;;;;;2.80;1.80;;;30.60;82.50;;;;;;5018614;28;20025;-81
2023/05/13 12:20:12;;;;;;;4.22;1.88;;;30.00;82.60;;;;;;5015766;28;20048;-81
2023/05/13 12:22:43;;;;;;;3.78;2.00;;;30.10;81.50;;;;;;5013541;28;20044;-82
2023/05/13 12:25:37;;;;;;;2.67;1.75;;;30.20;81.90;;;;;;5010430;28;20065;-81
2023/05/13 12:28:21;;;;;;;4.03;2.00;;;30.60;81.10;;;;;;5014019;28;20034;-82
2023/05/13 12:30:58;;;;;;;3.25;2.08;;;31.20;80.70;;;;;;5014198;28;20112;-82
2023/05/13 12:33:45;;;;;;;4.22;1.67;;;31.40;78.90;;;;;;5030742;28;20530;-82
2023/05/13 12:36:16;;;;;;;2.53;1.67;;;31.30;79.20;;;;;;5016110;28;20025;-83
2023/05/13 12:38:56;;;;;;;3.17;1.77;;;30.50;79.00;;;;;;5012765;28;20252;-83
2023/05/13 12:41:24;;;;;;;5.10;1.75;;;30.70;79.70;;;;;;5012701;28;20029;-82
2023/05/13 12:43:54;;;;;;;4.25;2.25;;;31.20;79.40;;;;;;5013320;28;20036;-82
2023/05/13 12:46:20;;;;;;;3.67;1.60;;;31.80;78.80;;;;;;5012952;28;20022;-82
2023/05/13 12:48:45;;;;;;;2.85;1.92;;;32.20;78.30;;;;;;5013791;28;20034;-81
2023/05/13 12:51:11;;;;;;;2.88;1.98;;;31.40;76.80;;;;;;5015694;28;20120;-83